createdAt,value
2018-08-04T00:01:25.396Z,13.28
2018-08-04T00:03:54.069Z,13.60
2018-08-04T00:06:22.542Z,12.80
2018-08-04T00:08:50.988Z,13.10
2018-08-04T00:11:19.436Z,12.85
2018-08-04T00:13:47.892Z,13.05
2018-08-04T00:16:16.040Z,11.90
2018-08-04T00:18:44.499Z,11.75
2018-08-04T00:21:12.988Z,11.73
2018-08-04T00:23:41.456Z,12.15
2018-08-04T00:26:09.955Z,11.78
2018-08-04T00:28:38.413Z,12.88
2018-08-04T00:31:06.885Z,12.90
2018-08-04T00:33:35.333Z,12.20
2018-08-04T00:36:03.807Z,12.07
2018-08-04T00:38:32.257Z,11.50
2018-08-04T00:41:00.740Z,12.00
2018-08-04T00:43:29.181Z,10.85
2018-08-04T00:45:57.672Z,11.90
2018-08-04T00:48:26.112Z,11.20
2018-08-04T00:50:55.129Z,12.28
2018-08-04T00:53:23.549Z,12.35
2018-08-04T00:55:51.987Z,13.32
2018-08-04T00:58:20.438Z,12.95
2018-08-04T01:00:48.904Z,12.70
2018-08-04T01:03:17.576Z,12.78
2018-08-04T01:05:46.088Z,12.68
2018-08-04T01:08:14.597Z,13.18
2018-08-04T01:10:43.029Z,13.43
2018-08-04T01:13:11.497Z,12.88
2018-08-04T01:15:39.693Z,11.88
2018-08-04T01:18:08.105Z,10.78
2018-08-04T01:20:36.633Z,12.20
2018-08-04T01:23:05.028Z,12.03
2018-08-04T01:25:33.540Z,12.73
2018-08-04T01:28:01.972Z,11.68
2018-08-04T01:30:30.424Z,11.65
2018-08-04T01:32:58.877Z,12.28
2018-08-04T01:35:27.410Z,12.13
2018-08-04T01:37:55.847Z,11.95
2018-08-04T01:40:24.301Z,13.05
2018-08-04T01:42:52.716Z,12.07
2018-08-04T01:45:21.184Z,12.98
2018-08-04T01:47:49.319Z,11.97
2018-08-04T01:50:17.761Z,12.45
2018-08-04T01:52:45.896Z,12.82
2018-08-04T01:55:14.333Z,12.65
2018-08-04T01:57:42.812Z,13.88
2018-08-04T02:00:11.456Z,14.45
2018-08-04T02:02:39.930Z,13.13
2018-08-04T02:05:08.382Z,13.53
2018-08-04T02:07:36.816Z,12.37
2018-08-04T02:10:05.349Z,13.05
2018-08-04T02:12:33.800Z,12.75
2018-08-04T02:15:02.209Z,13.20
2018-08-04T02:17:30.723Z,12.23
2018-08-04T02:19:59.160Z,12.80
2018-08-04T02:22:27.592Z,13.65
2018-08-04T02:24:56.112Z,12.20
2018-08-04T02:27:24.556Z,12.65
2018-08-04T02:29:53.152Z,13.38
2018-08-04T02:32:21.603Z,13.00
2018-08-04T02:34:50.042Z,12.73
2018-08-04T02:37:18.520Z,11.38
2018-08-04T02:39:46.933Z,11.28
2018-08-04T02:42:15.370Z,11.65
2018-08-04T02:44:43.804Z,12.03
2018-08-04T02:47:12.233Z,12.43
2018-08-04T02:49:40.667Z,11.22
2018-08-04T02:52:09.202Z,12.23
2018-08-04T02:54:37.609Z,11.80
2018-08-04T02:57:06.097Z,11.85
2018-08-04T02:59:34.544Z,11.60
2018-08-04T03:02:03.005Z,13.00
2018-08-04T03:04:31.479Z,13.13
2018-08-04T03:06:59.930Z,13.00
2018-08-04T03:09:29.067Z,12.78
2018-08-04T03:11:57.512Z,12.78
2018-08-04T03:14:25.921Z,13.60
2018-08-04T03:16:54.406Z,12.68
2018-08-04T03:19:23.238Z,12.80
2018-08-04T03:21:51.718Z,12.05
2018-08-04T03:24:20.156Z,12.58
2018-08-04T03:26:48.611Z,12.68
2018-08-04T03:29:17.016Z,13.08
2018-08-04T03:31:45.416Z,12.25
2018-08-04T03:34:13.877Z,13.72
2018-08-04T03:36:42.288Z,13.30
2018-08-04T03:39:11.706Z,13.20
2018-08-04T03:41:41.085Z,12.60
2018-08-04T03:44:09.591Z,11.68
2018-08-04T03:46:38.364Z,13.68
2018-08-04T03:49:06.832Z,12.45
2018-08-04T03:51:35.242Z,12.82
2018-08-04T03:54:03.697Z,13.03
2018-08-04T03:56:32.121Z,12.93
2018-08-04T03:59:00.548Z,12.75
2018-08-04T04:01:28.673Z,11.88
2018-08-04T04:03:57.092Z,12.28
2018-08-04T04:06:25.526Z,11.28
2018-08-04T04:08:53.986Z,11.85
2018-08-04T04:11:22.463Z,11.95
2018-08-04T04:13:51.168Z,11.20
2018-08-04T04:16:19.589Z,11.78
2018-08-04T04:18:47.739Z,11.43
2018-08-04T04:21:16.172Z,12.20
2018-08-04T04:23:44.640Z,12.53
2018-08-04T04:26:13.074Z,11.75
2018-08-04T04:28:41.513Z,11.90
2018-08-04T04:31:09.931Z,12.30
2018-08-04T04:33:38.102Z,12.33
2018-08-04T04:36:06.542Z,11.85
2018-08-04T04:38:35.190Z,12.43
2018-08-04T04:41:03.296Z,12.15
2018-08-04T04:43:31.746Z,11.83
2018-08-04T04:46:00.177Z,12.20
2018-08-04T04:48:28.710Z,11.97
2018-08-04T04:50:57.374Z,11.55
2018-08-04T04:53:25.837Z,12.28
2018-08-04T04:55:54.039Z,11.43
2018-08-04T04:58:22.520Z,11.68
2018-08-04T05:00:50.945Z,11.35
2018-08-04T05:03:19.553Z,10.85
2018-08-04T05:05:47.988Z,11.95
2018-08-04T05:08:16.509Z,11.57
2018-08-04T05:10:44.953Z,11.25
2018-08-04T05:13:13.419Z,12.13
2018-08-04T05:15:41.869Z,12.25
2018-08-04T05:18:10.326Z,13.00
2018-08-04T05:20:38.776Z,11.35
2018-08-04T05:23:07.217Z,11.93
2018-08-04T05:25:35.636Z,12.47
2018-08-04T05:28:03.804Z,11.50
2018-08-04T05:30:32.225Z,11.90
2018-08-04T05:33:00.643Z,11.90
2018-08-04T05:35:29.220Z,11.95
2018-08-04T05:37:57.644Z,11.55
2018-08-04T05:40:26.092Z,11.95
2018-08-04T05:42:54.205Z,12.07
2018-08-04T05:45:22.712Z,11.38
2018-08-04T05:47:51.112Z,11.38
2018-08-04T05:50:19.277Z,10.60
2018-08-04T05:52:47.745Z,11.10
2018-08-04T05:55:16.195Z,10.10
2018-08-04T05:57:45.920Z,10.40
2018-08-04T06:00:14.398Z,10.40
2018-08-04T06:02:42.833Z,10.40
2018-08-04T06:05:11.287Z,9.58
2018-08-04T06:07:39.742Z,9.70
2018-08-04T06:10:08.220Z,9.68
2018-08-04T06:12:36.388Z,9.20
2018-08-04T06:15:04.986Z,9.55
2018-08-04T06:17:33.556Z,9.93
2018-08-04T06:20:01.712Z,9.98
2018-08-04T06:22:30.217Z,9.23
2018-08-04T06:24:58.662Z,9.38
2018-08-04T06:27:27.101Z,9.30
2018-08-04T06:29:55.544Z,8.98
2018-08-04T06:32:24.517Z,8.18
2018-08-04T06:34:53.005Z,8.75
2018-08-04T06:37:21.441Z,8.25
2018-08-04T06:39:49.985Z,8.63
2018-08-04T06:42:18.533Z,8.80
2018-08-04T06:44:47.003Z,8.35
2018-08-04T06:47:15.437Z,8.20
2018-08-04T06:49:43.879Z,8.43
2018-08-04T06:52:12.335Z,8.38
2018-08-04T06:54:40.789Z,8.50
2018-08-04T06:57:09.213Z,8.55
2018-08-04T06:59:37.775Z,9.18
2018-08-04T07:02:06.248Z,8.43
2018-08-04T07:04:34.697Z,8.90
2018-08-04T07:07:03.124Z,8.05
2018-08-04T07:09:31.520Z,8.40
2018-08-04T07:11:59.972Z,9.08
2018-08-04T07:14:28.428Z,8.90
2018-08-04T07:16:56.869Z,8.28
2018-08-04T07:19:25.368Z,7.33
2018-08-04T07:21:53.809Z,8.25
2018-08-04T07:24:22.279Z,8.38
2018-08-04T07:26:50.756Z,8.48
2018-08-04T07:29:19.207Z,8.40
2018-08-04T07:31:47.681Z,7.92
2018-08-04T07:34:16.123Z,8.88
2018-08-04T07:36:44.560Z,8.05
2018-08-04T07:39:12.716Z,8.45
2018-08-04T07:41:41.147Z,8.00
2018-08-04T07:44:09.616Z,8.20
2018-08-04T07:46:38.276Z,9.00
2018-08-04T07:49:06.755Z,7.83
2018-08-04T07:51:35.181Z,8.08
2018-08-04T07:54:03.656Z,7.87
2018-08-04T07:56:32.189Z,7.85
2018-08-04T07:59:00.789Z,8.70
2018-08-04T08:01:29.232Z,7.42
2018-08-04T08:03:57.702Z,7.85
2018-08-04T08:06:26.144Z,7.92
2018-08-04T08:08:54.563Z,7.33
2018-08-04T08:11:23.199Z,7.03
2018-08-04T08:13:51.612Z,7.03
2018-08-04T08:16:20.051Z,7.33
2018-08-04T08:18:48.434Z,7.50
2018-08-04T08:21:16.919Z,7.17
2018-08-04T08:23:45.321Z,7.87
2018-08-04T08:26:14.697Z,7.35
2018-08-04T08:28:43.512Z,7.75
2018-08-04T08:31:12.005Z,7.33
2018-08-04T08:33:40.934Z,7.72
2018-08-04T08:36:10.208Z,7.20
2018-08-04T08:38:38.644Z,7.85
2018-08-04T08:41:07.137Z,8.08
2018-08-04T08:43:35.603Z,7.92
2018-08-04T08:46:04.062Z,7.83
2018-08-04T08:48:32.516Z,7.75
2018-08-04T08:51:00.944Z,6.85
2018-08-04T08:53:29.578Z,7.92
2018-08-04T08:55:57.889Z,7.62
2018-08-04T08:58:26.341Z,7.40
2018-08-04T09:00:54.768Z,7.28
2018-08-04T09:03:23.236Z,7.60
2018-08-04T09:05:51.649Z,7.00
2018-08-04T09:08:20.085Z,6.90
2018-08-04T09:10:48.209Z,7.12
2018-08-04T09:13:16.649Z,6.80
2018-08-04T09:15:45.214Z,7.60
2018-08-04T09:18:13.703Z,7.53
2018-08-04T09:20:42.080Z,7.08
2018-08-04T09:23:10.616Z,6.90
2018-08-04T09:25:39.160Z,6.70
2018-08-04T09:28:07.664Z,7.83
2018-08-04T09:30:36.084Z,7.20
2018-08-04T09:33:04.557Z,6.70
2018-08-04T09:35:32.987Z,7.45
2018-08-04T09:38:01.418Z,6.87
2018-08-04T09:40:29.888Z,6.35
2018-08-04T09:42:58.132Z,6.72
2018-08-04T09:45:26.592Z,7.03
2018-08-04T09:47:55.076Z,7.05
2018-08-04T09:50:23.464Z,6.97
2018-08-04T09:52:51.676Z,6.20
2018-08-04T09:55:20.112Z,7.12
2018-08-04T09:57:48.589Z,6.70
2018-08-04T10:00:22.560Z,5.72
2018-08-04T10:02:51.186Z,6.37
2018-08-04T10:05:19.307Z,5.92
2018-08-04T10:07:48.165Z,6.22
2018-08-04T10:10:16.852Z,6.25
2018-08-04T10:12:45.298Z,4.12
2018-08-04T10:15:13.707Z,4.05
2018-08-04T10:17:42.142Z,3.58
2018-08-04T10:20:11.779Z,4.15
2018-08-04T10:22:40.232Z,4.10
2018-08-04T10:25:09.039Z,4.95
2018-08-04T10:27:37.659Z,4.12
2018-08-04T10:30:08.505Z,4.65
2018-08-04T10:32:37.110Z,3.70
2018-08-04T10:35:05.944Z,3.58
2018-08-04T10:37:34.210Z,3.70
2018-08-04T10:40:02.692Z,3.10
2018-08-04T10:42:31.114Z,3.20
2018-08-04T10:44:59.560Z,3.00
2018-08-04T10:47:27.965Z,3.37
2018-08-04T10:49:56.408Z,3.45
2018-08-04T10:52:24.813Z,3.62
2018-08-04T10:54:53.245Z,3.92
2018-08-04T10:57:21.521Z,3.40
2018-08-04T10:59:49.981Z,3.17
2018-08-04T11:02:18.108Z,3.35
2018-08-04T11:04:46.586Z,3.58
2018-08-04T11:07:15.053Z,3.85
2018-08-04T11:09:43.537Z,3.25
2018-08-04T11:12:12.117Z,3.12
2018-08-04T11:14:40.381Z,2.77
2018-08-04T11:17:08.821Z,3.30
2018-08-04T11:19:37.298Z,3.60
2018-08-04T11:22:05.865Z,3.52
2018-08-04T11:24:34.448Z,3.12
2018-08-04T11:27:02.872Z,3.17
2018-08-04T11:29:31.562Z,3.70
2018-08-04T11:32:00.042Z,3.67
2018-08-04T11:34:28.589Z,3.65
2018-08-04T11:36:57.008Z,4.03
2018-08-04T11:39:25.472Z,3.37
2018-08-04T11:41:53.950Z,3.50
2018-08-04T11:44:22.388Z,3.70
2018-08-04T11:46:50.885Z,3.30
2018-08-04T11:49:19.324Z,3.52
2018-08-04T11:51:47.880Z,3.55
2018-08-04T11:54:16.329Z,3.00
2018-08-04T11:56:44.759Z,3.58
2018-08-04T11:59:13.204Z,3.40
2018-08-04T12:01:41.729Z,4.58
2018-08-04T12:04:10.170Z,3.85
2018-08-04T12:06:38.586Z,4.00
2018-08-04T12:09:09.986Z,4.00
2018-08-04T12:11:38.482Z,3.80
2018-08-04T12:14:07.420Z,3.60
2018-08-04T12:16:35.956Z,3.95
2018-08-04T12:19:04.882Z,3.72
2018-08-04T12:21:33.383Z,3.42
2018-08-04T12:24:01.878Z,3.55
2018-08-04T12:26:30.307Z,3.33
2018-08-04T12:28:58.824Z,3.62
2018-08-04T12:31:27.763Z,3.25
2018-08-04T12:33:56.150Z,4.10
2018-08-04T12:36:24.578Z,3.80
2018-08-04T12:38:52.996Z,3.80
2018-08-04T12:41:21.466Z,3.30
2018-08-04T12:43:49.968Z,3.67
2018-08-04T12:46:18.432Z,3.17
2018-08-04T12:48:46.520Z,3.60
2018-08-04T12:51:15.041Z,3.60
2018-08-04T12:53:43.437Z,3.65
2018-08-04T12:56:11.859Z,3.12
2018-08-04T12:58:40.270Z,2.90
2018-08-04T13:01:08.752Z,2.60
2018-08-04T13:03:37.195Z,2.65
2018-08-04T13:06:05.872Z,2.98
2018-08-04T13:08:34.309Z,2.98
2018-08-04T13:11:02.785Z,2.70
2018-08-04T13:13:31.226Z,3.47
2018-08-04T13:15:59.958Z,3.25
2018-08-04T13:18:28.393Z,2.65
2018-08-04T13:20:56.852Z,3.20
2018-08-04T13:23:25.256Z,3.08
2018-08-04T13:25:53.708Z,3.27
2018-08-04T13:28:22.188Z,2.85
2018-08-04T13:30:50.652Z,3.20
2018-08-04T13:33:19.521Z,2.98
2018-08-04T13:35:48.013Z,4.60
2018-08-04T13:38:16.403Z,2.52
2018-08-04T13:40:44.856Z,3.00
2018-08-04T13:43:13.293Z,2.50
2018-08-04T13:45:41.739Z,2.70
2018-08-04T13:48:10.189Z,2.85
2018-08-04T13:50:38.700Z,2.90
2018-08-04T13:53:07.318Z,2.65
2018-08-04T13:55:35.524Z,2.55
2018-08-04T13:58:03.957Z,2.80
2018-08-04T14:00:32.384Z,2.50
2018-08-04T14:03:00.813Z,2.62
2018-08-04T14:05:29.238Z,2.95
2018-08-04T14:07:57.900Z,3.02
2018-08-04T14:10:26.382Z,2.83
2018-08-04T14:12:54.836Z,3.05
2018-08-04T14:15:23.232Z,3.33
2018-08-04T14:17:51.343Z,3.05
2018-08-04T14:20:19.446Z,3.12
2018-08-04T14:22:47.898Z,2.98
2018-08-04T14:25:16.304Z,3.40
2018-08-04T14:27:44.797Z,2.77
2018-08-04T14:30:13.204Z,3.00
2018-08-04T14:32:41.635Z,3.20
2018-08-04T14:35:10.055Z,2.80
2018-08-04T14:37:38.544Z,3.12
2018-08-04T14:40:07.042Z,2.85
2018-08-04T14:42:35.580Z,3.10
2018-08-04T14:45:04.118Z,2.90
2018-08-04T14:47:32.704Z,2.90
2018-08-04T14:50:01.114Z,3.12
2018-08-04T14:52:29.280Z,3.35
2018-08-04T14:54:57.716Z,3.45
2018-08-04T14:57:26.165Z,2.70
2018-08-04T14:59:54.573Z,3.17
2018-08-04T15:02:22.992Z,2.72
2018-08-04T15:04:51.451Z,3.22
2018-08-04T15:07:19.849Z,3.17
2018-08-04T15:09:48.258Z,3.30
2018-08-04T15:12:16.709Z,3.15
2018-08-04T15:14:45.192Z,7.37
2018-08-04T15:17:13.682Z,4.12
2018-08-04T15:19:42.072Z,3.72
2018-08-04T15:22:10.553Z,3.90
2018-08-04T15:24:38.999Z,4.70
2018-08-04T15:27:07.452Z,4.42
2018-08-04T15:29:35.602Z,4.72
2018-08-04T15:32:04.077Z,4.58
2018-08-04T15:34:32.513Z,4.70
2018-08-04T15:37:00.998Z,4.65
2018-08-04T15:39:29.450Z,4.75
2018-08-04T15:41:57.980Z,4.95
2018-08-04T15:44:26.394Z,4.92
2018-08-04T15:46:54.923Z,4.92
2018-08-04T15:49:23.337Z,4.53
2018-08-04T15:51:51.772Z,4.15
2018-08-04T15:54:20.296Z,4.72
2018-08-04T15:56:48.760Z,4.83
2018-08-04T15:59:17.229Z,5.47
2018-08-04T16:01:45.644Z,4.22
2018-08-04T16:04:14.110Z,4.70
2018-08-04T16:06:42.649Z,4.42
2018-08-04T16:09:12.046Z,5.20
2018-08-04T16:11:41.423Z,4.55
2018-08-04T16:14:10.604Z,4.53
2018-08-04T16:16:42.053Z,4.65
2018-08-04T16:19:10.603Z,5.72
2018-08-04T16:21:38.997Z,5.22
2018-08-04T16:24:07.474Z,5.33
2018-08-04T16:26:35.941Z,4.33
2018-08-04T16:29:04.460Z,5.33
2018-08-04T16:31:32.921Z,4.67
2018-08-04T16:34:01.362Z,4.40
2018-08-04T16:36:29.817Z,4.33
2018-08-04T16:38:58.261Z,4.28
2018-08-04T16:41:26.703Z,4.87
2018-08-04T16:43:55.221Z,4.47
2018-08-04T16:46:23.653Z,3.92
2018-08-04T16:48:52.277Z,4.65
2018-08-04T16:51:20.701Z,3.92
2018-08-04T16:53:49.254Z,5.00
2018-08-04T16:56:17.689Z,4.67
2018-08-04T16:58:46.131Z,4.22
2018-08-04T17:01:14.547Z,3.98
2018-08-04T17:03:43.052Z,5.15
2018-08-04T17:06:11.507Z,4.20
2018-08-04T17:08:39.994Z,4.10
2018-08-04T17:11:08.429Z,4.53
2018-08-04T17:13:36.892Z,4.83
2018-08-04T17:16:05.386Z,4.50
2018-08-04T17:18:33.958Z,4.65
2018-08-04T17:21:02.146Z,5.10
2018-08-04T17:23:30.628Z,5.65
2018-08-04T17:25:59.042Z,4.03
2018-08-04T17:28:27.462Z,4.60
2018-08-04T17:30:55.900Z,4.58
2018-08-04T17:33:24.336Z,4.40
2018-08-04T17:35:53.225Z,5.00
2018-08-04T17:38:21.753Z,4.92
2018-08-04T17:40:50.171Z,4.53
2018-08-04T17:43:18.612Z,4.45
2018-08-04T17:45:47.115Z,5.03
2018-08-04T17:48:15.612Z,4.87
2018-08-04T17:50:44.068Z,4.92
2018-08-04T17:53:12.524Z,5.10
2018-08-04T17:55:41.068Z,4.97
2018-08-04T17:58:09.554Z,4.92
2018-08-04T18:00:38.010Z,5.15
2018-08-04T18:03:06.197Z,5.08
2018-08-04T18:05:34.641Z,4.90
2018-08-04T18:08:03.165Z,4.97
2018-08-04T18:10:31.660Z,5.42
2018-08-04T18:13:00.155Z,5.33
2018-08-04T18:15:28.829Z,4.87
2018-08-04T18:17:57.230Z,4.85
2018-08-04T18:20:25.695Z,5.17
2018-08-04T18:22:54.139Z,5.30
2018-08-04T18:25:22.621Z,5.40
2018-08-04T18:27:51.086Z,5.20
2018-08-04T18:30:19.557Z,5.03
2018-08-04T18:32:48.172Z,4.90
2018-08-04T18:35:16.705Z,5.17
2018-08-04T18:37:45.174Z,5.33
2018-08-04T18:40:13.597Z,5.95
2018-08-04T18:42:42.027Z,5.87
2018-08-04T18:45:10.267Z,4.62
2018-08-04T18:47:38.800Z,5.00
2018-08-04T18:50:07.354Z,4.95
2018-08-04T18:52:36.022Z,5.25
2018-08-04T18:55:04.653Z,5.15
2018-08-04T18:57:33.121Z,5.28
2018-08-04T19:00:01.612Z,5.28
2018-08-04T19:02:30.232Z,5.12
2018-08-04T19:04:58.713Z,5.50
2018-08-04T19:07:26.868Z,5.50
2018-08-04T19:09:55.322Z,5.85
2018-08-04T19:12:23.733Z,5.25
2018-08-04T19:14:52.182Z,5.53
2018-08-04T19:17:20.572Z,5.62
2018-08-04T19:19:49.037Z,5.72
2018-08-04T19:22:17.499Z,5.12
2018-08-04T19:24:45.898Z,5.60
2018-08-04T19:27:14.349Z,5.17
2018-08-04T19:29:42.738Z,5.70
2018-08-04T19:32:11.276Z,5.55
2018-08-04T19:34:39.749Z,6.12
2018-08-04T19:37:08.325Z,5.80
2018-08-04T19:39:36.760Z,6.20
2018-08-04T19:42:05.220Z,5.97
2018-08-04T19:44:33.704Z,6.08
2018-08-04T19:47:02.158Z,6.28
2018-08-04T19:49:30.267Z,5.85
2018-08-04T19:51:58.736Z,5.70
2018-08-04T19:54:27.364Z,5.47
2018-08-04T19:56:56.321Z,6.00
2018-08-04T19:59:24.795Z,6.12
2018-08-04T20:01:53.233Z,5.85
2018-08-04T20:04:21.701Z,6.37
2018-08-04T20:06:49.839Z,6.50
2018-08-04T20:09:18.234Z,6.65
2018-08-04T20:11:46.669Z,6.55
2018-08-04T20:14:15.103Z,6.53
2018-08-04T20:16:43.545Z,6.97
2018-08-04T20:19:11.979Z,6.75
2018-08-04T20:21:40.569Z,5.67
2018-08-04T20:24:08.993Z,5.83
2018-08-04T20:26:38.596Z,6.97
2018-08-04T20:29:07.043Z,6.28
2018-08-04T20:31:35.516Z,6.78
2018-08-04T20:34:03.980Z,6.00
2018-08-04T20:36:32.505Z,6.50
2018-08-04T20:39:00.994Z,6.87
2018-08-04T20:41:29.442Z,6.67
2018-08-04T20:43:57.880Z,6.53
2018-08-04T20:46:26.371Z,7.00
2018-08-04T20:48:54.925Z,6.85
2018-08-04T20:51:23.334Z,7.65
2018-08-04T20:53:51.787Z,7.30
2018-08-04T20:56:20.197Z,7.72
2018-08-04T20:58:48.645Z,7.53
2018-08-04T21:01:28.249Z,7.83
2018-08-04T21:03:56.697Z,7.05
2018-08-04T21:06:25.200Z,7.53
2018-08-04T21:08:53.682Z,7.55
2018-08-04T21:11:22.128Z,8.10
2018-08-04T21:13:50.593Z,7.83
2018-08-04T21:16:19.092Z,7.65
2018-08-04T21:18:47.549Z,8.33
2018-08-04T21:21:15.972Z,7.90
2018-08-04T21:23:44.417Z,7.53
2018-08-04T21:26:12.824Z,7.40
2018-08-04T21:28:41.256Z,7.33
2018-08-04T21:31:09.668Z,7.28
2018-08-04T21:33:38.231Z,7.95
2018-08-04T21:36:06.659Z,7.65
2018-08-04T21:38:35.137Z,7.70
2018-08-04T21:41:03.608Z,8.35
2018-08-04T21:43:31.851Z,9.13
2018-08-04T21:46:00.452Z,7.92
2018-08-04T21:48:28.906Z,8.30
2018-08-04T21:50:57.372Z,7.72
2018-08-04T21:53:25.807Z,8.23
2018-08-04T21:55:54.207Z,7.87
2018-08-04T21:58:22.681Z,7.28
2018-08-04T22:00:56.281Z,8.20
2018-08-04T22:03:24.746Z,7.10
2018-08-04T22:05:53.237Z,8.93
2018-08-04T22:08:33.065Z,8.93
2018-08-04T22:11:02.054Z,7.97
2018-08-04T22:13:30.637Z,8.18
2018-08-04T22:15:59.073Z,7.35
2018-08-04T22:18:27.537Z,8.13
2018-08-04T22:20:56.045Z,8.33
2018-08-04T22:23:24.449Z,7.90
2018-08-04T22:25:52.965Z,8.90
2018-08-04T22:28:21.479Z,8.30
2018-08-04T22:30:49.691Z,8.48
2018-08-04T22:33:18.205Z,8.75
2018-08-04T22:35:46.758Z,8.55
2018-08-04T22:38:15.157Z,8.05
2018-08-04T22:40:43.628Z,8.33
2018-08-04T22:43:12.070Z,8.55
2018-08-04T22:46:07.723Z,8.83
2018-08-04T22:48:36.164Z,7.87
2018-08-04T22:51:04.618Z,8.93
2018-08-04T22:53:33.077Z,8.68
2018-08-04T22:56:01.554Z,9.58
2018-08-04T22:58:30.000Z,8.43
2018-08-04T23:00:58.632Z,8.75
2018-08-04T23:03:27.124Z,8.53
2018-08-04T23:05:55.608Z,9.00
2018-08-04T23:08:24.119Z,8.10
2018-08-04T23:10:52.577Z,8.35
2018-08-04T23:13:21.045Z,8.60
2018-08-04T23:15:49.559Z,9.00
2018-08-04T23:18:18.017Z,8.38
2018-08-04T23:20:46.493Z,8.63
2018-08-04T23:23:14.912Z,8.65
2018-08-04T23:25:43.357Z,9.03
2018-08-04T23:28:11.770Z,8.33
2018-08-04T23:30:40.256Z,8.38
2018-08-04T23:33:08.687Z,8.65
2018-08-04T23:35:37.129Z,8.90
2018-08-04T23:38:05.546Z,8.15
2018-08-04T23:40:33.974Z,8.43
2018-08-04T23:43:02.160Z,8.13
2018-08-04T23:45:31.540Z,8.35
2018-08-04T23:47:59.984Z,9.50
2018-08-04T23:50:28.461Z,8.03
2018-08-04T23:52:56.942Z,9.13
2018-08-04T23:55:25.404Z,8.48
2018-08-04T23:57:53.862Z,8.88
